KDYS/DYS METAR and TAF weather

Enter ICAO airport designator
Station Type Date Time Source
KDYS METAR 2022/07/03 13:56 UTC NOAA

KDYS 031356Z AUTO 18010KT 10SM SCT100 28/16 A3001 RMK AO2 SLP110 T02800163 $


Station Type Date Time Source
KDYS Decoded METAR 2022/07/03 13:56 UTC NOAA

Abilene, Dyess Air Force Base, TX, United States (KDYS) 32-25-12N 099-51-25W
Jul 03, 2022 - 09:56 AM EDT / 2022.07.03 1356 UTC
Wind: from the S (180 degrees) at 12 MPH (10 KT):0
Visibility: 10 mile(s):0
Sky conditions: partly cloudy
Temperature: 82.4 F (28.0 C)
Dew Point: 61.3 F (16.3 C)
Relative Humidity: 49%
Pressure (altimeter): 30.01 in. Hg (1016 hPa)
ob: KDYS 031356Z AUTO 18010KT 10SM SCT100 28/16 A3001 RMK AO2 SLP110 T02800163
cycle: 14

Station Type Date Time Source
KDYS TAF 2022/07/03 03:45 UTC NOAA

TAF KDYS 030333Z 0303/0407 14009KT 9999 FEW100 QNH2986INS
BECMG 0314/0315 17010G15KT 9999 BKN100 QNH2997INS
BECMG 0320/0321 16012G18KT 9000 -RA BKN080 QNH2992INS
TEMPO 0321/0323 16015G25KT 8000 TSRA BKN080CB
BECMG 0400/0401 16009KT 9999 NSW SCT080 QNH2992INS
BECMG 0403/0404 15009KT 9999 SCT080 QNH2999INS TX35/0320Z TN24/0312Z LAST NO
AMDS AFT 0203 NEXT 0512

Example: see airport list